Kinkaid, Illinois
Current Conditions -  °F | °C
As of 12:52 PM on Monday 20 Oct 2014 (Local Time) from KMDH Reporting Station
Clear Clear  
Wind Chill: 71°   Ceiling: Unl
Heat Index: 71°   Visibility: 8mi
Dew Point: 53°   Wind: 10mph
Humidity: 53%   Direction: 270°W
Pressure: 29.96"   Gusts: NA
Location:  37.8835°N, 89.4465°W
Report Text: KMDH 201752Z 27009KT 8SM CLR 22/12 A2996 RMK AO2 SLP145 60000 T02170117 10217 20100 58017
Loading
Personal Weather Stations






























Interactive Weather Map New forecast layout! Learn more

10-Day Weather Forecast

Advertisements
Track Severe Weather on mobile